Time;durP1;ratioP1;P1;durP2;ratioP2;P2;SDS_P1;SDS_P2;PMS_P1;PMS_P2;Temp;Humidity;BMP_temperature;BMP_pressure;BME280_temperature;BME280_humidity;BME280_pressure;Samples;Min_cycle;Max_cycle;Signal;HPM_P1;HPM_P2
2023/04/11 00:01:06;;;;;;;;;2.00;2.00;;;;;9.64;73.45;100704.56;5011535;28;10489;-68
2023/04/11 00:03:33;;;;;;;;;0.00;0.00;;;;;9.64;73.73;100701.88;5011634;28;10410;-68
2023/04/11 00:05:59;;;;;;;;;2.00;2.00;;;;;9.59;74.06;100707.84;5011090;28;10494;-68
2023/04/11 00:08:26;;;;;;;;;0.50;0.50;;;;;9.57;73.33;100704.53;5010103;28;10462;-68
2023/04/11 00:10:52;;;;;;;;;1.00;1.00;;;;;9.61;74.31;100702.28;5011376;28;10497;-68
2023/04/11 00:13:19;;;;;;;;;1.25;1.25;;;;;9.62;74.11;100703.94;5001668;28;10434;-69
2023/04/11 00:15:45;;;;;;;;;4.25;1.50;;;;;9.64;73.95;100716.19;5009839;28;10567;-67
2023/04/11 00:18:12;;;;;;;;;0.25;0.25;;;;;9.66;74.04;100710.59;5011254;28;10389;-70
2023/04/11 00:20:38;;;;;;;;;0.00;0.00;;;;;9.66;74.13;100716.81;5011114;28;10359;-70
2023/04/11 00:23:04;;;;;;;;;2.00;1.00;;;;;9.59;74.58;100707.84;5010073;28;10335;-70
2023/04/11 00:25:31;;;;;;;;;1.00;1.00;;;;;9.64;74.70;100709.94;5010245;28;10426;-70
2023/04/11 00:27:58;;;;;;;;;1.00;1.00;;;;;9.64;74.34;100705.44;5010025;28;10230;-70
2023/04/11 00:30:24;;;;;;;;;1.00;1.00;;;;;9.68;74.23;100696.97;5009555;28;10208;-70
2023/04/11 00:32:51;;;;;;;;;0.00;0.00;;;;;9.68;74.24;100699.66;5009782;28;10381;-70
2023/04/11 00:35:17;;;;;;;;;3.00;2.00;;;;;9.59;73.90;100705.16;5007864;28;10444;-70
2023/04/11 00:37:45;;;;;;;;;1.00;1.00;;;;;9.50;73.21;100703.63;5016014;28;10385;-68
2023/04/11 00:40:14;;;;;;;;;2.00;0.75;;;;;9.51;73.65;100707.94;5025554;28;10296;-67
2023/04/11 00:42:41;;;;;;;;;1.00;1.00;;;;;9.37;72.84;100715.06;5019810;28;10225;-69
2023/04/11 00:45:08;;;;;;;;;5.00;1.00;;;;;9.38;72.45;100710.50;5011017;28;10363;-69
2023/04/11 00:47:34;;;;;;;;;1.00;1.00;;;;;9.41;73.16;100712.81;5009692;28;10293;-68
2023/04/11 00:50:01;;;;;;;;;1.50;0.00;;;;;9.41;72.62;100708.28;5010550;28;10403;-68
2023/04/11 00:52:28;;;;;;;;;1.50;0.25;;;;;9.45;72.61;100713.28;5009144;28;10442;-69
2023/04/11 00:54:54;;;;;;;;;1.00;1.00;;;;;9.45;72.78;100710.59;5009779;28;10390;-69
2023/04/11 00:57:24;;;;;;;;;1.00;1.00;;;;;9.37;72.91;100723.09;5010257;28;11064;-68
2023/04/11 00:59:51;;;;;;;;;0.00;0.00;;;;;9.39;73.07;100709.47;5009095;28;10519;-68
2023/04/11 01:02:18;;;;;;;;;1.00;1.00;;;;;9.31;72.44;100718.47;5010713;28;11217;-68
2023/04/11 01:04:45;;;;;;;;;2.00;1.00;;;;;9.32;72.91;100708.59;5008752;28;10824;-69
2023/04/11 01:07:13;;;;;;;;;1.75;1.00;;;;;9.36;72.65;100715.25;5023532;28;10394;-69
2023/04/11 01:09:40;;;;;;;;;0.75;0.75;;;;;9.41;72.91;100727.09;5009432;28;10322;-69
2023/04/11 01:12:08;;;;;;;;;1.00;1.00;;;;;9.35;72.54;100719.75;5009110;28;11140;-68
2023/04/11 01:14:34;;;;;;;;;2.75;0.00;;;;;9.36;72.22;100717.94;5005553;28;10423;-68
2023/04/11 01:17:01;;;;;;;;;1.50;1.50;;;;;9.34;72.74;100722.66;5010132;28;10595;-70
2023/04/11 01:19:28;;;;;;;;;3.50;1.00;;;;;9.26;72.32;100715.53;5010447;28;10321;-69
2023/04/11 01:21:57;;;;;;;;;0.00;0.00;;;;;9.21;72.42;100720.66;5009563;28;10382;-69
2023/04/11 01:24:23;;;;;;;;;0.00;0.00;;;;;9.22;72.41;100727.69;5004929;28;10489;-69
2023/04/11 01:26:50;;;;;;;;;2.25;0.00;;;;;9.28;72.79;100728.78;5008809;28;10441;-69
2023/04/11 01:29:17;;;;;;;;;1.00;0.00;;;;;9.23;72.34;100726.66;5007684;28;10387;-68
2023/04/11 01:31:45;;;;;;;;;0.00;0.00;;;;;9.19;72.20;100725.34;5009027;28;10308;-68
2023/04/11 01:34:13;;;;;;;;;1.00;0.00;;;;;9.10;72.25;100721.13;5010074;28;10406;-69
2023/04/11 01:36:41;;;;;;;;;0.00;0.00;;;;;9.15;72.55;100726.75;5008913;28;10390;-67
2023/04/11 01:39:08;;;;;;;;;0.00;0.00;;;;;9.21;72.67;100728.69;5007320;28;10273;-68
2023/04/11 01:41:35;;;;;;;;;1.00;1.00;;;;;9.18;72.79;100730.94;5013865;28;10474;-69
2023/04/11 01:44:02;;;;;;;;;0.00;0.00;;;;;9.20;72.68;100736.97;5008709;28;10377;-70
2023/04/11 01:46:30;;;;;;;;;0.00;0.00;;;;;9.23;72.04;100737.38;5009175;28;10389;-67
2023/04/11 01:48:58;;;;;;;;;1.00;1.00;;;;;9.27;72.22;100745.91;5008564;28;10403;-69
2023/04/11 01:51:25;;;;;;;;;1.75;0.00;;;;;9.18;72.56;100739.81;5010044;28;10523;-70
2023/04/11 01:53:52;;;;;;;;;1.00;0.00;;;;;9.21;72.89;100755.56;5009488;28;10522;-67
2023/04/11 01:56:19;;;;;;;;;0.00;0.00;;;;;9.16;72.15;100747.25;5008468;28;11223;-69
2023/04/11 01:58:45;;;;;;;;;1.00;1.00;;;;;9.16;72.18;100748.06;5007950;28;10479;-69
2023/04/11 02:01:16;;;;;;;;;0.00;0.00;;;;;9.13;72.59;100750.28;5010882;28;10529;-68
2023/04/11 02:03:42;;;;;;;;;1.00;0.00;;;;;9.11;72.45;100752.31;5013456;28;10513;-68
2023/04/11 02:06:09;;;;;;;;;2.00;0.00;;;;;9.02;72.24;100761.50;5013603;28;10364;-69
2023/04/11 02:08:35;;;;;;;;;2.00;1.00;;;;;8.95;72.58;100756.03;5011219;28;10502;-68
2023/04/11 02:11:02;;;;;;;;;4.50;1.00;;;;;8.97;73.16;100763.91;5013738;28;11209;-69
2023/04/11 02:13:29;;;;;;;;;0.00;0.00;;;;;8.94;72.71;100765.09;5013839;28;10563;-68
2023/04/11 02:15:55;;;;;;;;;0.00;0.00;;;;;8.88;72.73;100777.44;5012203;28;10447;-69
2023/04/11 02:18:24;;;;;;;;;0.00;0.00;;;;;8.97;73.35;100780.03;4994837;28;10537;-68
2023/04/11 02:20:51;;;;;;;;;1.25;0.75;;;;;8.96;73.52;100781.88;5012285;28;10490;-67
2023/04/11 02:23:18;;;;;;;;;2.00;0.25;;;;;9.04;73.67;100778.28;5012652;28;10585;-68
2023/04/11 02:25:45;;;;;;;;;0.00;0.00;;;;;9.08;73.22;100777.72;5011148;28;10542;-67
2023/04/11 02:28:11;;;;;;;;;1.25;1.00;;;;;8.98;73.32;100779.81;5011958;28;10657;-68
2023/04/11 02:30:38;;;;;;;;;0.50;0.00;;;;;8.93;73.18;100778.72;5013224;28;10544;-69
2023/04/11 02:33:04;;;;;;;;;3.25;0.25;;;;;8.95;73.15;100779.34;5012919;28;10459;-68
2023/04/11 02:35:31;;;;;;;;;1.00;1.00;;;;;8.96;73.32;100783.72;5006569;28;10522;-69
2023/04/11 02:37:58;;;;;;;;;2.50;0.00;;;;;8.99;72.94;100791.41;5010994;28;10517;-70
2023/04/11 02:40:25;;;;;;;;;1.75;1.00;;;;;8.98;72.92;100787.88;5013227;28;10498;-68
2023/04/11 02:42:51;;;;;;;;;0.00;0.00;;;;;8.98;72.87;100787.06;5012120;28;10502;-68
2023/04/11 02:45:18;;;;;;;;;2.00;0.50;;;;;8.97;73.40;100782.72;5010743;28;10717;-69
2023/04/11 02:47:45;;;;;;;;;0.00;0.00;;;;;8.97;72.85;100783.53;5010580;28;10509;-69
2023/04/11 02:50:11;;;;;;;;;1.75;0.00;;;;;8.94;73.12;100788.44;5012086;28;10439;-69
2023/04/11 02:52:48;;;;;;;;;0.00;0.00;;;;;8.97;73.12;100785.38;5011250;28;10528;-70
2023/04/11 02:55:18;;;;;;;;;4.50;0.50;;;;;8.96;72.70;100792.63;5010939;28;10525;-69
2023/04/11 02:57:44;;;;;;;;;1.00;1.00;;;;;8.96;72.92;100784.56;4994789;28;10447;-69
2023/04/11 03:00:14;;;;;;;;;3.50;0.50;;;;;8.91;73.10;100785.13;5007802;28;10597;-69
2023/04/11 03:02:48;;;;;;;;;1.25;0.25;;;;;8.95;73.43;100792.78;5011133;28;10586;-69
2023/04/11 03:05:19;;;;;;;;;6.00;2.00;;;;;8.91;72.57;100785.13;5026267;28;11311;-69
2023/04/11 03:07:48;;;;;;;;;0.00;0.00;;;;;8.88;72.58;100785.47;5011062;28;10570;-69
2023/04/11 03:10:14;;;;;;;;;4.00;0.00;;;;;8.88;72.85;100798.06;5011132;28;10472;-69
2023/04/11 03:12:41;;;;;;;;;0.00;0.00;;;;;8.83;72.41;100789.72;5010401;28;10383;-69
2023/04/11 03:15:10;;;;;;;;;2.00;1.00;;;;;8.83;72.64;100800.47;5009323;28;10371;-69
2023/04/11 03:17:36;;;;;;;;;1.00;0.00;;;;;8.84;72.04;100794.09;5011658;28;10372;-70
2023/04/11 03:20:06;;;;;;;;;0.00;0.00;;;;;8.84;72.29;100797.59;5011152;28;11118;-69
2023/04/11 03:22:33;;;;;;;;;0.00;0.00;;;;;8.86;72.27;100806.28;5010064;28;10573;-68
2023/04/11 03:24:59;;;;;;;;;0.00;0.00;;;;;8.86;72.13;100797.41;5010354;28;10422;-69
2023/04/11 03:27:26;;;;;;;;;0.00;0.00;;;;;8.78;71.64;100798.31;5008627;28;11009;-70
2023/04/11 03:29:57;;;;;;;;;0.00;0.00;;;;;8.74;71.55;100796.19;5010734;28;11161;-68
2023/04/11 03:32:31;;;;;;;;;0.00;0.00;;;;;8.74;71.82;100813.13;5009577;28;10309;-70
2023/04/11 03:34:59;;;;;;;;;0.00;0.00;;;;;8.71;71.63;100802.78;5010262;28;11344;-68
2023/04/11 03:37:26;;;;;;;;;0.50;0.00;;;;;8.71;71.58;100810.84;5009514;28;10383;-70
2023/04/11 03:39:52;;;;;;;;;0.00;0.00;;;;;8.74;71.13;100805.06;5011686;28;10368;-69
2023/04/11 03:42:19;;;;;;;;;1.75;1.00;;;;;8.72;72.07;100807.13;5009636;28;10189;-69
2023/04/11 03:44:50;;;;;;;;;4.00;2.00;;;;;8.71;71.62;100816.19;5001875;28;10416;-69
2023/04/11 03:47:17;;;;;;;;;0.50;0.50;;;;;8.66;71.58;100811.34;5009975;28;10327;-68
2023/04/11 03:49:44;;;;;;;;;0.00;0.00;;;;;8.71;71.95;100818.88;5010557;28;10505;-69
2023/04/11 03:52:16;;;;;;;;;0.25;0.25;;;;;8.69;72.01;100823.59;5009360;28;10482;-67
2023/04/11 03:54:44;;;;;;;;;0.50;0.50;;;;;8.68;71.91;100824.59;4993512;28;11231;-69
2023/04/11 03:57:13;;;;;;;;;0.50;0.00;;;;;8.72;72.26;100823.22;4998484;28;10456;-68
2023/04/11 03:59:40;;;;;;;;;0.00;0.00;;;;;8.70;71.55;100822.56;4990897;28;10365;-69
2023/04/11 04:02:09;;;;;;;;;1.25;0.00;;;;;8.68;71.91;100826.47;4990971;28;10453;-69
2023/04/11 04:04:45;;;;;;;;;0.00;0.00;;;;;8.63;71.49;100837.75;4991289;28;11271;-69
2023/04/11 04:07:21;;;;;;;;;0.00;0.00;;;;;8.66;71.50;100838.19;5006588;28;11244;-69
2023/04/11 04:09:50;;;;;;;;;0.00;0.00;;;;;8.63;71.57;100843.94;5009479;28;10402;-69
2023/04/11 04:12:19;;;;;;;;;1.00;1.00;;;;;8.60;71.38;100844.28;5010096;28;10592;-69
2023/04/11 04:15:05;;;;;;;;;0.25;0.00;;;;;8.61;71.44;100850.50;5009765;28;10358;-69
2023/04/11 04:17:31;;;;;;;;;0.00;0.00;;;;;8.60;71.24;100855.03;5009756;28;10453;-69
2023/04/11 04:19:59;;;;;;;;;0.00;0.00;;;;;8.55;71.10;100845.88;5009809;28;10557;-69
2023/04/11 04:22:28;;;;;;;;;0.00;0.00;;;;;8.52;71.50;100847.06;5009969;28;10372;-69
2023/04/11 04:24:58;;;;;;;;;0.00;0.00;;;;;8.45;70.81;100856.81;5007703;28;10415;-68
2023/04/11 04:27:28;;;;;;;;;0.75;0.00;;;;;8.38;70.71;100858.56;5007868;28;10473;-69
2023/04/11 04:29:56;;;;;;;;;0.00;0.00;;;;;8.32;70.63;100856.56;5008195;28;10378;-68
2023/04/11 04:32:53;;;;;;;;;2.25;1.00;;;;;8.33;70.74;100858.22;5009579;28;10591;-69
2023/04/11 04:35:21;;;;;;;;;0.75;0.75;;;;;8.36;71.15;100864.06;5006607;28;10665;-69
2023/04/11 04:37:48;;;;;;;;;0.00;0.00;;;;;8.35;70.30;100870.47;5024926;28;10465;-70
2023/04/11 04:40:30;;;;;;;;;1.00;0.00;;;;;8.31;70.57;100885.25;5009512;28;10455;-69
2023/04/11 04:43:03;;;;;;;;;0.50;0.50;;;;;8.32;69.97;100883.38;5009576;28;10427;-68
2023/04/11 04:45:41;;;;;;;;;0.00;0.00;;;;;8.27;70.17;100888.47;5044107;23;10551;-67
2023/04/11 04:48:12;;;;;;;;;0.50;0.50;;;;;8.26;70.33;100895.66;5024978;28;10577;-66
2023/04/11 04:50:39;;;;;;;;;0.00;0.00;;;;;8.22;70.86;100885.47;5023522;28;10583;-67
2023/04/11 04:53:06;;;;;;;;;1.00;0.00;;;;;8.20;69.99;100890.19;5033319;28;10575;-66
2023/04/11 04:55:33;;;;;;;;;0.00;0.00;;;;;8.17;70.26;100886.81;5026278;28;10488;-66
2023/04/11 04:57:59;;;;;;;;;0.00;0.00;;;;;8.20;69.51;100896.38;4996301;28;10789;-66
2023/04/11 05:00:27;;;;;;;;;0.00;0.00;;;;;8.16;69.89;100898.56;4995212;28;10453;-66
2023/04/11 05:02:58;;;;;;;;;0.00;0.00;;;;;8.19;69.21;100905.44;4999806;28;10684;-66
2023/04/11 05:05:30;;;;;;;;;1.25;0.25;;;;;8.21;69.23;100899.88;5029610;28;10591;-64
2023/04/11 05:07:57;;;;;;;;;1.00;0.00;;;;;8.15;69.44;100906.81;5028905;28;10672;-66
2023/04/11 05:10:24;;;;;;;;;1.50;1.00;;;;;8.17;69.28;100912.81;5014478;28;10515;-66
2023/04/11 05:12:52;;;;;;;;;0.25;0.25;;;;;8.24;69.56;100921.00;5026688;28;10605;-67
2023/04/11 05:15:21;;;;;;;;;0.00;0.00;;;;;8.25;68.71;100918.13;5020198;28;10594;-66
2023/04/11 05:17:48;;;;;;;;;2.00;0.00;;;;;8.22;69.34;100918.47;5009354;28;10574;-66
2023/04/11 05:20:15;;;;;;;;;1.00;0.50;;;;;8.23;69.39;100925.53;5010810;28;10574;-65
2023/04/11 05:22:46;;;;;;;;;0.75;0.25;;;;;8.16;69.69;100921.88;5025188;28;10648;-64
2023/04/11 05:25:13;;;;;;;;;1.00;0.00;;;;;8.18;69.50;100938.59;5020579;28;10709;-65
2023/04/11 05:27:41;;;;;;;;;0.00;0.00;;;;;8.19;69.75;100932.25;5002374;28;10795;-66
2023/04/11 05:30:09;;;;;;;;;1.00;1.00;;;;;8.23;70.09;100935.41;5020325;28;11373;-67
2023/04/11 05:32:37;;;;;;;;;0.00;0.00;;;;;8.29;69.77;100937.38;5024568;28;11402;-65
2023/04/11 05:35:05;;;;;;;;;0.00;0.00;;;;;8.32;69.89;100937.88;5015530;28;11376;-68
2023/04/11 05:37:42;;;;;;;;;1.50;0.50;;;;;8.32;70.75;100945.91;5012993;28;10776;-65
2023/04/11 05:40:08;;;;;;;;;0.00;0.00;;;;;8.29;70.53;100956.97;5009102;28;10719;-66
2023/04/11 05:42:35;;;;;;;;;0.00;0.00;;;;;8.29;69.93;100953.47;5007114;28;10466;-66
2023/04/11 05:45:01;;;;;;;;;0.75;0.75;;;;;8.37;70.43;100962.34;5009001;28;10658;-66
2023/04/11 05:47:28;;;;;;;;;1.00;0.00;;;;;8.48;70.01;100968.31;5010795;28;10596;-66
2023/04/11 05:49:54;;;;;;;;;1.00;0.00;;;;;8.59;69.13;100970.59;5003150;28;10671;-67
2023/04/11 05:52:21;;;;;;;;;0.00;0.00;;;;;8.68;69.39;100976.75;5004614;28;10684;-67
2023/04/11 05:54:48;;;;;;;;;1.00;0.00;;;;;8.66;69.13;100979.59;5012256;28;11361;-66
2023/04/11 05:57:16;;;;;;;;;1.00;0.00;;;;;8.75;68.82;100977.66;5013368;28;10578;-67
2023/04/11 05:59:42;;;;;;;;;1.50;1.50;;;;;8.78;68.97;100983.53;5012125;28;10602;-67
2023/04/11 06:02:09;;;;;;;;;0.25;0.25;;;;;8.73;68.36;100983.22;5007630;28;10588;-66
2023/04/11 06:04:36;;;;;;;;;0.50;0.00;;;;;8.77;68.46;100986.41;5012667;28;10517;-67
2023/04/11 06:07:03;;;;;;;;;1.75;0.75;;;;;8.87;68.66;101001.25;5013476;28;10542;-67
2023/04/11 06:09:30;;;;;;;;;0.00;0.00;;;;;9.01;68.05;100986.22;5011936;28;10644;-67
2023/04/11 06:12:00;;;;;;;;;0.75;0.50;;;;;9.18;67.85;100997.63;5013826;28;10552;-67
2023/04/11 06:14:26;;;;;;;;;1.00;0.00;;;;;9.31;67.65;100989.78;5012770;28;10441;-66
2023/04/11 06:16:53;;;;;;;;;0.75;0.75;;;;;9.38;67.32;100996.09;5021631;28;10282;-67
2023/04/11 06:19:19;;;;;;;;;1.25;1.00;;;;;9.31;67.56;100989.78;5013212;28;10431;-66
2023/04/11 06:21:46;;;;;;;;;2.00;0.00;;;;;9.39;67.38;100987.03;5022914;28;10304;-66
2023/04/11 06:24:14;;;;;;;;;0.00;0.00;;;;;9.51;67.44;100997.34;5031737;28;10416;-67
2023/04/11 06:26:40;;;;;;;;;1.00;0.00;;;;;9.43;67.89;101003.63;5008159;28;11045;-67
2023/04/11 06:29:07;;;;;;;;;1.75;1.00;;;;;9.45;67.28;101004.28;4993254;28;10396;-67
2023/04/11 06:31:33;;;;;;;;;4.50;2.50;;;;;9.45;67.73;101004.28;5008166;28;10296;-66
2023/04/11 06:34:00;;;;;;;;;1.00;1.00;;;;;9.51;66.88;101000.84;5005062;28;10299;-65
2023/04/11 06:36:27;;;;;;;;;2.00;0.50;;;;;9.50;67.47;101006.41;5003629;28;10341;-67
2023/04/11 06:38:54;;;;;;;;;1.50;1.50;;;;;9.50;67.37;101011.78;5007494;28;10301;-67
2023/04/11 06:41:20;;;;;;;;;2.00;1.50;;;;;9.57;67.14;101015.44;5011830;28;10240;-66
2023/04/11 06:43:47;;;;;;;;;2.25;0.00;;;;;9.61;66.33;101014.88;5008394;28;10402;-66
2023/04/11 06:46:13;;;;;;;;;1.00;1.00;;;;;9.53;67.05;101014.13;5010547;28;10403;-67
2023/04/11 06:48:40;;;;;;;;;3.50;1.75;;;;;9.62;67.16;101015.69;4998451;28;10306;-66
2023/04/11 06:51:07;;;;;;;;;1.00;1.00;;;;;9.64;66.60;101027.09;5006517;28;10344;-66
2023/04/11 06:53:35;;;;;;;;;1.75;0.00;;;;;9.65;66.19;101026.09;5007321;28;10673;-65
2023/04/11 06:56:01;;;;;;;;;2.00;0.00;;;;;9.69;66.48;101027.41;5010532;28;10430;-66
2023/04/11 06:58:28;;;;;;;;;0.00;0.00;;;;;9.72;66.79;101032.38;5011742;28;10246;-66
2023/04/11 07:00:54;;;;;;;;;1.00;0.75;;;;;9.87;65.95;101025.16;5009705;28;10301;-66
2023/04/11 07:03:23;;;;;;;;;1.50;0.25;;;;;9.89;65.40;101023.13;5009557;28;10373;-65
2023/04/11 07:05:51;;;;;;;;;2.00;0.00;;;;;9.94;64.28;101035.19;5013843;28;10215;-69
2023/04/11 07:08:17;;;;;;;;;0.00;0.00;;;;;9.91;64.89;101031.84;5009443;28;10303;-65
2023/04/11 07:10:44;;;;;;;;;1.00;1.00;;;;;9.96;64.72;101047.41;5008103;28;10158;-66
2023/04/11 07:13:10;;;;;;;;;2.25;1.75;;;;;10.08;64.84;101050.47;5005356;28;10961;-66
2023/04/11 07:15:37;;;;;;;;;3.00;1.50;;;;;10.10;63.59;101043.91;5017184;28;10448;-65
2023/04/11 07:18:03;;;;;;;;;1.00;1.00;;;;;10.16;63.58;101048.53;5009669;28;10523;-65
2023/04/11 07:20:31;;;;;;;;;1.25;1.25;;;;;10.04;63.77;101047.31;4998905;28;10232;-66
2023/04/11 07:22:58;;;;;;;;;0.75;0.75;;;;;9.97;63.87;101057.19;5010624;28;10293;-66
2023/04/11 07:25:29;;;;;;;;;1.00;1.00;;;;;9.97;63.63;101051.81;5011074;28;10203;-67
2023/04/11 07:27:56;;;;;;;;;3.00;1.00;;;;;10.11;64.00;101050.13;5011260;28;10246;-67
2023/04/11 07:30:23;;;;;;;;;2.75;0.00;;;;;10.24;63.51;101063.75;5011121;28;10293;-67
2023/04/11 07:32:49;;;;;;;;;2.00;1.25;;;;;10.17;62.01;101060.16;5011188;28;10154;-67
2023/04/11 07:35:16;;;;;;;;;0.75;0.75;;;;;10.09;61.81;101061.06;5007677;28;10245;-67
2023/04/11 07:37:44;;;;;;;;;1.00;0.25;;;;;10.13;62.13;101077.69;5006286;28;11028;-67
2023/04/11 07:40:13;;;;;;;;;0.00;0.00;;;;;10.10;61.72;101073.50;5003132;28;10102;-67
2023/04/11 07:42:40;;;;;;;;;2.00;0.00;;;;;10.07;62.13;101084.63;5009548;28;10098;-67
2023/04/11 07:45:07;;;;;;;;;2.25;0.25;;;;;10.11;62.46;101080.53;5010334;28;10158;-67
2023/04/11 07:47:33;;;;;;;;;1.00;0.00;;;;;10.07;61.83;101078.41;5010944;28;10180;-66
2023/04/11 07:50:00;;;;;;;;;3.00;1.00;;;;;9.95;61.32;101090.63;5004719;28;10099;-66
2023/04/11 07:52:27;;;;;;;;;4.00;1.00;;;;;10.07;61.69;101094.53;4992657;28;10074;-65
2023/04/11 07:54:54;;;;;;;;;0.00;0.00;;;;;10.14;60.88;101093.63;4995791;28;10084;-66
2023/04/11 07:57:21;;;;;;;;;2.00;0.50;;;;;10.07;59.75;101089.16;4993445;28;10073;-66
2023/04/11 07:59:47;;;;;;;;;0.50;0.50;;;;;10.05;60.48;101086.66;5010630;28;10130;-66
2023/04/11 08:02:14;;;;;;;;;0.50;0.25;;;;;10.13;60.64;101093.81;5006947;28;10231;-66
2023/04/11 08:04:40;;;;;;;;;0.75;0.00;;;;;10.14;61.06;101103.56;4998909;28;10075;-66
2023/04/11 08:07:07;;;;;;;;;2.25;0.50;;;;;10.24;60.62;101101.41;5000830;28;10227;-67
2023/04/11 08:09:33;;;;;;;;;1.00;1.00;;;;;10.44;60.52;101098.19;4990967;28;10381;-66
2023/04/11 08:12:00;;;;;;;;;0.00;0.00;;;;;10.62;60.10;101114.78;5002517;28;10243;-67
2023/04/11 08:14:26;;;;;;;;;0.50;0.50;;;;;10.63;59.66;101111.06;5004687;28;10186;-66
2023/04/11 08:16:53;;;;;;;;;1.00;1.00;;;;;10.52;59.26;101112.38;5008845;28;10019;-67
2023/04/11 08:19:20;;;;;;;;;0.25;0.00;;;;;10.50;59.42;101118.97;5001333;28;10192;-66
2023/04/11 08:21:46;;;;;;;;;0.00;0.00;;;;;10.46;59.54;101129.28;5007781;28;10026;-66
2023/04/11 08:24:13;;;;;;;;;0.75;0.75;;;;;10.33;59.45;101123.69;4991789;28;10072;-68
2023/04/11 08:26:39;;;;;;;;;0.50;0.50;;;;;10.30;60.14;101132.16;5004086;28;10036;-68
2023/04/11 08:29:09;;;;;;;;;1.00;0.00;;;;;10.14;59.52;101127.75;5010153;28;9999;-67
2023/04/11 08:31:45;;;;;;;;;1.25;0.00;;;;;10.03;58.57;101144.34;5008909;28;10047;-67
2023/04/11 08:34:12;;;;;;;;;1.00;0.00;;;;;9.88;58.76;101137.09;5008878;28;10097;-67
2023/04/11 08:36:38;;;;;;;;;0.00;0.00;;;;;9.79;59.21;101146.22;5010093;28;10193;-67
2023/04/11 08:39:05;;;;;;;;;1.00;0.00;;;;;9.79;59.65;101148.09;5002871;28;10186;-68
2023/04/11 08:41:32;;;;;;;;;1.00;0.25;;;;;9.89;60.13;101149.53;4990606;28;10356;-67
2023/04/11 08:43:59;;;;;;;;;0.00;0.00;;;;;10.11;60.03;101149.63;4989811;28;10122;-67
2023/04/11 08:46:25;;;;;;;;;0.00;0.00;;;;;10.32;59.73;101144.38;4999819;28;10084;-67
2023/04/11 08:48:52;;;;;;;;;0.75;0.00;;;;;10.40;58.53;101159.63;5000739;28;10095;-67
2023/04/11 08:51:21;;;;;;;;;1.00;1.00;;;;;10.34;58.02;101160.38;5009994;28;10183;-68
2023/04/11 08:53:48;;;;;;;;;0.75;0.75;;;;;10.14;58.13;101146.59;5010011;28;10086;-68
2023/04/11 08:56:17;;;;;;;;;0.00;0.00;;;;;10.30;59.16;101154.53;5009465;28;9983;-68
2023/04/11 08:58:44;;;;;;;;;8.00;4.00;;;;;10.58;59.03;101156.56;5009285;28;10768;-67
2023/04/11 09:01:31;;;;;;;;;0.75;0.75;;;;;10.77;57.46;101149.75;5024701;28;10209;-68
2023/04/11 09:04:03;;;;;;;;;1.50;0.00;;;;;10.69;56.32;101158.75;4991787;28;10129;-67
2023/04/11 09:06:32;;;;;;;;;1.00;1.00;;;;;10.68;56.26;101165.19;5005045;28;9844;-68
2023/04/11 09:09:00;;;;;;;;;1.50;0.00;;;;;10.74;56.23;101171.69;5010696;28;9947;-67
2023/04/11 09:11:26;;;;;;;;;0.75;0.00;;;;;10.60;56.48;101171.50;5015533;28;10589;-66
2023/04/11 09:14:09;;;;;;;;;0.00;0.00;;;;;10.60;56.46;101176.03;5016092;28;9830;-66
2023/04/11 09:16:51;;;;;;;;;0.00;0.00;;;;;10.67;56.57;101171.59;5016328;28;9998;-66
2023/04/11 09:19:29;;;;;;;;;1.00;1.00;;;;;10.61;55.89;101180.41;5011935;28;10005;-66
2023/04/11 09:22:00;;;;;;;;;1.00;0.75;;;;;10.51;55.56;101166.41;5009239;28;9835;-67
2023/04/11 09:24:30;;;;;;;;;0.00;0.00;;;;;10.81;56.74;101165.34;5016909;28;10075;-66
2023/04/11 09:27:18;;;;;;;;;2.00;1.00;;;;;11.12;55.75;101164.28;5000887;28;10180;-66
2023/04/11 09:29:46;;;;;;;;;3.00;0.00;;;;;11.33;54.55;101161.59;5012271;28;9931;-65
2023/04/11 09:32:32;;;;;;;;;0.25;0.25;;;;;11.41;53.22;101167.91;5010244;28;10643;-66
2023/04/11 09:35:19;;;;;;;;;0.00;0.00;;;;;11.51;53.37;101174.66;5008803;28;9786;-66
2023/04/11 09:37:52;;;;;;;;;0.00;0.00;;;;;11.60;52.82;101169.97;4999873;28;9861;-67
2023/04/11 09:40:24;;;;;;;;;1.00;0.00;;;;;11.76;52.37;101177.78;5000787;28;9862;-67
2023/04/11 09:42:59;;;;;;;;;1.00;0.00;;;;;11.80;52.40;101175.53;5013952;28;10538;-67
2023/04/11 09:45:26;;;;;;;;;0.00;0.00;;;;;11.88;52.19;101181.66;5012988;28;9774;-66
2023/04/11 09:47:57;;;;;;;;;1.75;0.50;;;;;11.99;52.24;101182.16;5014639;28;9753;-67
2023/04/11 09:50:25;;;;;;;;;1.50;1.00;;;;;12.06;52.14;101180.34;5016095;28;9846;-66
2023/04/11 09:52:52;;;;;;;;;3.25;1.00;;;;;12.09;51.31;101177.25;5029400;28;10556;-66
2023/04/11 09:55:21;;;;;;;;;1.00;1.00;;;;;12.22;51.71;101182.75;5015511;28;9730;-67
2023/04/11 09:57:49;;;;;;;;;1.00;0.25;;;;;12.10;51.69;101187.84;5014965;28;9959;-67
2023/04/11 10:00:23;;;;;;;;;2.00;0.00;;;;;12.06;52.03;101188.44;5006176;28;9794;-66
2023/04/11 10:02:54;;;;;;;;;0.25;0.25;;;;;12.32;52.36;101174.31;5015573;28;9622;-67
2023/04/11 10:05:26;;;;;;;;;1.00;0.00;;;;;12.58;51.90;101181.72;5014065;28;9498;-67
2023/04/11 10:08:05;;;;;;;;;1.00;1.00;;;;;12.68;50.89;101189.47;5014206;28;9546;-65
2023/04/11 10:10:31;;;;;;;;;0.00;0.00;;;;;12.45;49.61;101182.50;5015929;28;9567;-66
2023/04/11 10:12:58;;;;;;;;;3.00;0.00;;;;;12.29;49.79;101177.41;5016099;28;9537;-66
2023/04/11 10:15:24;;;;;;;;;1.00;0.00;;;;;12.44;50.02;101190.81;5012130;28;10333;-66
2023/04/11 10:18:20;;;;;;;;;0.50;0.50;;;;;12.51;49.29;101188.97;4996221;28;9485;-66
2023/04/11 10:20:48;;;;;;;;;1.00;1.00;;;;;12.62;48.90;101197.34;5001781;28;9650;-65
2023/04/11 10:23:15;;;;;;;;;0.00;0.00;;;;;12.42;48.76;101187.44;5008049;28;9455;-67
2023/04/11 10:25:58;;;;;;;;;0.00;0.00;;;;;12.36;49.19;101195.31;5011192;28;9553;-66
2023/04/11 10:28:30;;;;;;;;;0.50;0.50;;;;;12.51;49.63;101197.88;5002945;28;9614;-66
2023/04/11 10:31:12;;;;;;;;;2.00;1.00;;;;;12.55;49.16;101203.72;5000823;28;9599;-67
2023/04/11 10:33:59;;;;;;;;;1.00;1.00;;;;;12.77;49.04;101212.59;5012861;28;9638;-66
2023/04/11 10:36:26;;;;;;;;;1.00;1.00;;;;;12.83;48.63;101214.50;5011401;28;10350;-67
2023/04/11 10:38:52;;;;;;;;;1.25;0.25;;;;;12.66;48.67;101219.38;5011140;28;10174;-68
2023/04/11 10:41:21;;;;;;;;;2.25;1.50;;;;;12.51;48.76;101226.75;5011446;28;9592;-66
2023/04/11 10:43:48;;;;;;;;;1.75;0.25;;;;;12.41;48.42;101226.28;5005663;28;9696;-67
2023/04/11 10:46:23;;;;;;;;;2.00;1.00;;;;;12.31;49.02;101223.91;5050347;23;9694;-68
2023/04/11 10:49:00;;;;;;;;;4.00;1.00;;;;;12.32;49.98;101206.72;5030739;28;9616;-66
2023/04/11 10:51:28;;;;;;;;;0.75;0.00;;;;;12.41;49.64;101227.13;5032452;28;9585;-66
2023/04/11 10:53:58;;;;;;;;;0.00;0.00;;;;;12.70;49.70;101220.66;5023305;28;9539;-65
2023/04/11 10:56:47;;;;;;;;;4.00;1.00;;;;;12.84;48.57;101213.44;5031204;28;10047;-66
2023/04/11 10:59:35;;;;;;;;;0.00;0.00;;;;;12.92;47.88;101225.97;5029786;28;9550;-66
2023/04/11 11:02:02;;;;;;;;;0.75;0.75;;;;;12.76;47.64;101214.47;5028193;28;10280;-66
2023/04/11 11:04:33;;;;;;;;;1.00;1.00;;;;;12.80;47.70;101214.88;5027030;28;9599;-67
2023/04/11 11:07:02;;;;;;;;;1.00;0.50;;;;;12.74;46.92;101216.53;5030934;28;9658;-64
2023/04/11 11:09:30;;;;;;;;;1.50;0.50;;;;;12.66;47.31;101227.50;5022637;28;9686;-66
2023/04/11 11:12:14;;;;;;;;;6.00;0.25;;;;;12.66;47.22;101221.25;5030910;28;9676;-66
2023/04/11 11:14:43;;;;;;;;;1.00;1.00;;;;;12.71;47.17;101218.78;5029109;28;9681;-66
2023/04/11 11:17:11;;;;;;;;;0.75;0.00;;;;;12.64;46.73;101216.06;5023443;28;9688;-67
2023/04/11 11:19:43;;;;;;;;;3.00;0.75;;;;;12.66;46.31;101221.25;5022052;28;9684;-67
2023/04/11 11:22:14;;;;;;;;;0.00;0.00;;;;;12.71;45.68;101224.19;5030682;28;9707;-66
2023/04/11 11:24:41;;;;;;;;;1.00;1.00;;;;;12.83;46.32;101222.59;5030685;28;9768;-67
2023/04/11 11:27:18;;;;;;;;;0.00;0.00;;;;;13.02;46.32;101229.97;5026816;28;9662;-67
2023/04/11 11:29:44;;;;;;;;;2.75;0.00;;;;;13.07;45.54;101232.06;5030725;28;9597;-67
2023/04/11 11:32:28;;;;;;;;;0.25;0.25;;;;;13.03;46.13;101228.94;5029570;28;9672;-66
2023/04/11 11:34:56;;;;;;;;;1.75;0.50;;;;;13.15;45.97;101228.34;5025697;28;9679;-67
2023/04/11 11:37:22;;;;;;;;;0.75;0.75;;;;;13.35;45.79;101238.25;5026425;28;9518;-66
2023/04/11 11:39:50;;;;;;;;;0.50;0.00;;;;;13.53;44.37;101228.72;5031151;28;10279;-67